Time;durP1;ratioP1;P1;durP2;ratioP2;P2;SDS_P1;SDS_P2;PMS_P1;PMS_P2;Temp;Humidity;BMP_temperature;BMP_pressure;BME280_temperature;BME280_humidity;BME280_pressure;Samples;Min_cycle;Max_cycle;Signal;HPM_P1;HPM_P2
2023/11/03 00:01:03;;;;;;;4.83;2.20;;;;;;;;;;775420;178;920696;-67
2023/11/03 00:03:29;;;;;;;3.50;1.83;;;;;;;;;;780554;177;919249;-67
2023/11/03 00:05:57;;;;;;;3.60;1.93;;;;;;;;;;782486;177;922732;-67
2023/11/03 00:08:21;;;;;;;3.80;1.97;;;;;;;;;;789424;177;920344;-68
2023/11/03 00:10:47;;;;;;;4.37;2.33;;;;;;;;;;783494;178;919245;-66
2023/11/03 00:13:13;;;;;;;5.80;2.30;;;;;;;;;;782453;177;919393;-68
2023/11/03 00:15:38;;;;;;;3.60;2.13;;;;;;;;;;784701;178;916209;-67
2023/11/03 00:18:05;;;;;;;3.70;1.93;;;;;;;;;;776748;178;1026469;-66
2023/11/03 00:20:30;;;;;;;7.60;2.23;;;;;;;;;;782789;178;918522;-65
2023/11/03 00:22:57;;;;;;;3.97;2.40;;;;;;;;;;786414;177;916222;-65
2023/11/03 00:25:22;;;;;;;3.23;1.57;;;;;;;;;;777059;180;854536;-67
2023/11/03 00:27:50;;;;;;;8.00;2.03;;;;;;;;;;783203;178;919552;-65
2023/11/03 00:30:14;;;;;;;3.50;1.93;;;;;;;;;;783994;178;920309;-64
2023/11/03 00:32:40;;;;;;;4.27;1.83;;;;;;;;;;785082;178;920546;-66
2023/11/03 00:35:08;;;;;;;6.33;1.90;;;;;;;;;;781168;178;920707;-66
2023/11/03 00:37:32;;;;;;;6.80;2.50;;;;;;;;;;780024;178;923585;-67
2023/11/03 00:39:58;;;;;;;4.03;2.00;;;;;;;;;;789451;178;815776;-66
2023/11/03 00:42:24;;;;;;;4.03;2.23;;;;;;;;;;778608;178;919143;-65
2023/11/03 00:44:50;;;;;;;2.70;1.57;;;;;;;;;;777452;179;919133;-66
2023/11/03 00:47:15;;;;;;;4.17;2.60;;;;;;;;;;783334;178;921317;-66
2023/11/03 00:49:41;;;;;;;3.00;1.80;;;;;;;;;;781092;178;919785;-68
2023/11/03 00:52:07;;;;;;;5.37;2.20;;;;;;;;;;780632;178;921200;-66
2023/11/03 00:54:33;;;;;;;3.03;1.60;;;;;;;;;;780061;179;919484;-66
2023/11/03 00:57:00;;;;;;;4.43;1.97;;;;;;;;;;781708;179;918710;-66
2023/11/03 00:59:25;;;;;;;4.03;2.50;;;;;;;;;;780158;178;919741;-66
2023/11/03 01:01:50;;;;;;;3.47;1.63;;;;;;;;;;779709;178;918876;-66
2023/11/03 01:04:16;;;;;;;5.23;2.50;;;;;;;;;;786659;179;918657;-68
2023/11/03 01:06:42;;;;;;;14.23;2.53;;;;;;;;;;781248;178;919444;-67
2023/11/03 01:09:09;;;;;;;2.40;1.40;;;;;;;;;;783282;178;916801;-67
2023/11/03 01:11:36;;;;;;;3.93;2.07;;;;;;;;;;786130;178;918160;-67
2023/11/03 01:14:00;;;;;;;5.03;2.20;;;;;;;;;;785706;178;912277;-67
2023/11/03 01:16:26;;;;;;;3.40;2.10;;;;;;;;;;784091;177;918908;-67
2023/11/03 01:18:51;;;;;;;4.15;2.30;;;;;;;;;;788342;178;919477;-66
2023/11/03 01:21:18;;;;;;;3.10;2.00;;;;;;;;;;785238;178;915345;-69
2023/11/03 01:23:43;;;;;;;5.70;2.43;;;;;;;;;;781977;178;915202;-67
2023/11/03 01:26:09;;;;;;;4.93;2.70;;;;;;;;;;779323;178;919568;-66
2023/11/03 01:28:36;;;;;;;3.23;1.87;;;;;;;;;;790589;178;851953;-68
2023/11/03 01:31:02;;;;;;;7.10;1.90;;;;;;;;;;783014;178;920794;-67
2023/11/03 01:33:26;;;;;;;3.70;2.08;;;;;;;;;;784709;178;919002;-67
2023/11/03 01:35:52;;;;;;;2.67;1.50;;;;;;;;;;784733;178;919042;-66
2023/11/03 01:38:18;;;;;;;3.00;1.75;;;;;;;;;;781838;178;919122;-67
2023/11/03 01:40:44;;;;;;;5.87;2.47;;;;;;;;;;784013;178;938892;-67
2023/11/03 01:43:10;;;;;;;5.07;2.10;;;;;;;;;;786444;178;919561;-67
2023/11/03 01:45:36;;;;;;;3.03;1.60;;;;;;;;;;782621;179;807511;-66
2023/11/03 01:48:02;;;;;;;4.60;2.20;;;;;;;;;;781112;178;914462;-67
2023/11/03 01:50:27;;;;;;;7.78;2.25;;;;;;;;;;782512;179;820438;-68
2023/11/03 01:52:53;;;;;;;3.80;2.00;;;;;;;;;;774693;179;922640;-67
2023/11/03 01:55:19;;;;;;;3.97;1.97;;;;;;;;;;779424;179;913461;-67
2023/11/03 01:57:45;;;;;;;3.60;1.87;;;;;;;;;;779070;179;920643;-66
2023/11/03 02:00:13;;;;;;;4.20;2.40;;;;;;;;;;787067;178;918643;-69
2023/11/03 02:02:39;;;;;;;4.47;2.10;;;;;;;;;;784013;178;917757;-68
2023/11/03 02:05:04;;;;;;;3.93;2.10;;;;;;;;;;780955;178;919255;-65
2023/11/03 02:07:30;;;;;;;4.47;1.80;;;;;;;;;;789262;178;917790;-66
2023/11/03 02:09:55;;;;;;;4.33;2.00;;;;;;;;;;784218;178;819863;-67
2023/11/03 02:12:21;;;;;;;5.50;2.07;;;;;;;;;;780380;178;917673;-67
2023/11/03 02:14:49;;;;;;;6.95;2.25;;;;;;;;;;784922;178;918374;-66
2023/11/03 02:17:14;;;;;;;6.60;1.90;;;;;;;;;;774493;180;918792;-67
2023/11/03 02:19:40;;;;;;;3.80;1.93;;;;;;;;;;782205;178;919052;-67
2023/11/03 02:22:06;;;;;;;4.20;1.80;;;;;;;;;;780516;178;910641;-68
2023/11/03 02:24:32;;;;;;;3.03;1.77;;;;;;;;;;789554;178;817175;-67
2023/11/03 02:26:57;;;;;;;3.97;2.10;;;;;;;;;;786295;177;910410;-66
2023/11/03 02:29:23;;;;;;;5.85;2.55;;;;;;;;;;781318;178;918242;-69
2023/11/03 02:31:49;;;;;;;7.57;2.50;;;;;;;;;;789465;178;911066;-66
2023/11/03 02:34:15;;;;;;;5.43;2.70;;;;;;;;;;782968;178;913921;-67
2023/11/03 02:36:41;;;;;;;4.73;2.20;;;;;;;;;;782666;178;918362;-65
2023/11/03 02:39:07;;;;;;;3.80;2.27;;;;;;;;;;783938;178;917300;-67
2023/11/03 02:41:33;;;;;;;5.70;2.70;;;;;;;;;;782915;178;919519;-67
2023/11/03 02:43:58;;;;;;;3.00;1.63;;;;;;;;;;781762;178;913906;-66
2023/11/03 02:46:24;;;;;;;3.53;2.10;;;;;;;;;;782706;178;923662;-67
2023/11/03 02:48:50;;;;;;;3.40;2.00;;;;;;;;;;787558;178;919610;-66
2023/11/03 02:51:16;;;;;;;3.47;2.27;;;;;;;;;;782488;178;919390;-66
2023/11/03 02:53:42;;;;;;;6.37;2.23;;;;;;;;;;780519;178;920951;-66
2023/11/03 02:56:08;;;;;;;4.50;2.30;;;;;;;;;;785062;178;919077;-66
2023/11/03 02:58:34;;;;;;;3.47;2.10;;;;;;;;;;782896;178;918536;-67
2023/11/03 03:01:00;;;;;;;3.70;2.00;;;;;;;;;;779759;178;921123;-65
2023/11/03 03:03:26;;;;;;;5.53;2.03;;;;;;;;;;786012;178;917034;-65
2023/11/03 03:05:52;;;;;;;5.17;2.37;;;;;;;;;;777918;179;918780;-66
2023/11/03 03:08:17;;;;;;;12.83;3.30;;;;;;;;;;782366;178;919246;-66
2023/11/03 03:10:43;;;;;;;3.22;1.80;;;;;;;;;;783627;178;919031;-66
2023/11/03 03:13:10;;;;;;;8.90;3.10;;;;;;;;;;775376;177;912336;-66
2023/11/03 03:15:35;;;;;;;4.10;2.17;;;;;;;;;;777938;177;919385;-66
2023/11/03 03:18:02;;;;;;;4.43;1.90;;;;;;;;;;782502;178;919110;-66
2023/11/03 03:20:27;;;;;;;4.77;2.40;;;;;;;;;;784994;178;916479;-65
2023/11/03 03:22:53;;;;;;;8.03;2.50;;;;;;;;;;783143;178;827852;-66
2023/11/03 03:25:18;;;;;;;9.67;2.50;;;;;;;;;;783773;178;823395;-65
2023/11/03 03:27:44;;;;;;;3.90;1.70;;;;;;;;;;783979;178;918516;-65
2023/11/03 03:30:11;;;;;;;4.97;2.40;;;;;;;;;;780960;178;918713;-65
2023/11/03 03:32:36;;;;;;;4.13;2.13;;;;;;;;;;781270;178;915492;-67
2023/11/03 03:35:02;;;;;;;4.60;2.33;;;;;;;;;;785920;178;919611;-67
2023/11/03 03:37:28;;;;;;;4.17;2.17;;;;;;;;;;778085;176;919099;-67
2023/11/03 03:39:54;;;;;;;3.47;1.95;;;;;;;;;;784251;177;919067;-67
2023/11/03 03:42:20;;;;;;;3.37;1.70;;;;;;;;;;782068;177;920677;-65
2023/11/03 03:44:46;;;;;;;4.10;2.20;;;;;;;;;;788078;178;825095;-65
2023/11/03 03:47:12;;;;;;;5.33;2.27;;;;;;;;;;784553;176;820471;-64
2023/11/03 03:49:37;;;;;;;3.70;2.47;;;;;;;;;;783401;178;914654;-67
2023/11/03 03:52:03;;;;;;;8.50;2.77;;;;;;;;;;789281;176;816770;-65
2023/11/03 03:54:30;;;;;;;7.70;2.10;;;;;;;;;;784490;178;916292;-65
2023/11/03 03:56:55;;;;;;;5.23;2.90;;;;;;;;;;784932;176;918395;-65
2023/11/03 03:59:21;;;;;;;5.63;2.47;;;;;;;;;;787151;178;813250;-64
2023/11/03 04:01:47;;;;;;;6.47;3.23;;;;;;;;;;781191;178;932794;-67
2023/11/03 04:04:13;;;;;;;4.50;2.93;;;;;;;;;;784134;177;918838;-64
2023/11/03 04:06:39;;;;;;;5.68;2.87;;;;;;;;;;782484;178;938123;-65
2023/11/03 04:09:05;;;;;;;5.70;3.20;;;;;;;;;;778788;179;912744;-65
2023/11/03 04:11:30;;;;;;;4.07;2.30;;;;;;;;;;780011;179;919667;-65
2023/11/03 04:13:56;;;;;;;3.77;2.50;;;;;;;;;;782756;178;918522;-66
2023/11/03 04:16:22;;;;;;;5.40;2.47;;;;;;;;;;786345;178;817631;-66
2023/11/03 04:18:48;;;;;;;5.30;2.93;;;;;;;;;;780829;178;830263;-67
2023/11/03 04:21:14;;;;;;;6.63;3.27;;;;;;;;;;781158;178;919219;-66
2023/11/03 04:23:40;;;;;;;6.03;3.07;;;;;;;;;;787445;178;919511;-65
2023/11/03 04:26:05;;;;;;;4.53;2.77;;;;;;;;;;778601;178;826640;-66
2023/11/03 04:28:33;;;;;;;4.60;2.70;;;;;;;;;;781780;179;919007;-65
2023/11/03 04:30:57;;;;;;;4.10;2.63;;;;;;;;;;786931;178;918973;-67
2023/11/03 04:33:23;;;;;;;6.67;2.67;;;;;;;;;;783780;178;896443;-66
2023/11/03 04:35:49;;;;;;;5.77;3.00;;;;;;;;;;780868;178;917752;-63
2023/11/03 04:38:15;;;;;;;4.37;2.40;;;;;;;;;;780919;178;918309;-67
2023/11/03 04:40:40;;;;;;;5.40;2.90;;;;;;;;;;784586;178;918226;-65
2023/11/03 04:43:06;;;;;;;4.93;2.80;;;;;;;;;;781403;178;920104;-68
2023/11/03 04:45:32;;;;;;;5.60;3.30;;;;;;;;;;780122;178;918510;-65
2023/11/03 04:47:58;;;;;;;5.07;3.30;;;;;;;;;;784970;178;929391;-69
2023/11/03 04:50:24;;;;;;;5.00;3.10;;;;;;;;;;784968;177;817152;-69
2023/11/03 04:52:50;;;;;;;6.50;3.00;;;;;;;;;;783287;178;919897;-69
2023/11/03 04:55:15;;;;;;;7.03;3.10;;;;;;;;;;789121;177;817077;-66
2023/11/03 04:57:41;;;;;;;5.85;3.10;;;;;;;;;;787127;177;808685;-70
2023/11/03 05:00:10;;;;;;;5.97;3.87;;;;;;;;;;781789;178;1015108;-68
2023/11/03 05:02:35;;;;;;;7.17;3.57;;;;;;;;;;781996;177;920585;-68
2023/11/03 05:05:04;;;;;;;8.37;4.03;;;;;;;;;;789330;178;902102;-69
2023/11/03 05:07:27;;;;;;;8.37;4.20;;;;;;;;;;779336;177;909108;-66
2023/11/03 05:09:53;;;;;;;6.40;3.40;;;;;;;;;;780556;177;922253;-69
2023/11/03 05:12:19;;;;;;;7.37;4.30;;;;;;;;;;784102;178;921976;-65
2023/11/03 05:14:45;;;;;;;8.20;4.33;;;;;;;;;;778454;177;916992;-66
2023/11/03 05:17:10;;;;;;;5.90;3.80;;;;;;;;;;781012;178;918873;-66
2023/11/03 05:19:37;;;;;;;6.47;4.13;;;;;;;;;;786952;178;915560;-65
2023/11/03 05:22:03;;;;;;;9.23;4.23;;;;;;;;;;781393;178;1019265;-70
2023/11/03 05:24:29;;;;;;;7.53;4.10;;;;;;;;;;781234;178;818598;-70
2023/11/03 05:26:55;;;;;;;10.90;4.70;;;;;;;;;;782805;178;912528;-65
2023/11/03 05:29:23;;;;;;;7.57;3.90;;;;;;;;;;779748;178;823377;-65
2023/11/03 05:31:47;;;;;;;5.93;4.13;;;;;;;;;;778575;178;899155;-65
2023/11/03 05:34:12;;;;;;;8.98;4.55;;;;;;;;;;779241;178;1007982;-69
2023/11/03 05:36:38;;;;;;;8.00;4.43;;;;;;;;;;785632;178;830384;-69
2023/11/03 05:39:04;;;;;;;6.57;4.33;;;;;;;;;;780536;178;821391;-66
2023/11/03 05:41:30;;;;;;;7.97;4.47;;;;;;;;;;783327;178;812231;-70
2023/11/03 05:43:56;;;;;;;10.83;4.70;;;;;;;;;;790559;178;618994;-69
2023/11/03 05:46:23;;;;;;;8.10;5.07;;;;;;;;;;785104;178;629180;-71
2023/11/03 05:48:47;;;;;;;17.67;5.77;;;;;;;;;;785121;178;628693;-69
2023/11/03 05:51:13;;;;;;;8.90;4.62;;;;;;;;;;787914;178;703719;-65
2023/11/03 05:53:39;;;;;;;8.00;5.60;;;;;;;;;;785134;178;847457;-65
2023/11/03 05:56:05;;;;;;;9.00;4.97;;;;;;;;;;784378;178;633183;-68
2023/11/03 05:58:31;;;;;;;7.77;5.37;;;;;;;;;;784591;178;619308;-66
2023/11/03 06:00:57;;;;;;;9.53;4.97;;;;;;;;;;793277;176;619980;-70
2023/11/03 06:03:23;;;;;;;7.03;5.20;;;;;;;;;;787179;177;778114;-70
2023/11/03 06:05:48;;;;;;;8.87;4.50;;;;;;;;;;786993;177;636012;-66
2023/11/03 06:08:14;;;;;;;7.23;4.67;;;;;;;;;;791587;178;619158;-66
2023/11/03 06:10:40;;;;;;;8.37;4.77;;;;;;;;;;785170;177;918394;-72
2023/11/03 06:13:06;;;;;;;7.23;4.57;;;;;;;;;;785457;178;815191;-66
2023/11/03 06:15:32;;;;;;;12.60;5.47;;;;;;;;;;787486;177;924040;-68
2023/11/03 06:17:58;;;;;;;8.83;4.93;;;;;;;;;;780481;178;919675;-65
2023/11/03 06:20:23;;;;;;;7.40;4.67;;;;;;;;;;778593;178;813882;-69
2023/11/03 06:22:49;;;;;;;8.00;5.30;;;;;;;;;;780221;177;933563;-69
2023/11/03 06:25:15;;;;;;;8.40;4.73;;;;;;;;;;783678;176;814738;-70
2023/11/03 06:27:41;;;;;;;6.30;4.10;;;;;;;;;;777590;178;920949;-72
2023/11/03 06:30:07;;;;;;;8.20;4.63;;;;;;;;;;779529;178;919474;-66
2023/11/03 06:32:33;;;;;;;5.97;4.60;;;;;;;;;;786218;178;816661;-69
2023/11/03 06:34:59;;;;;;;11.13;4.67;;;;;;;;;;782593;177;922538;-69
2023/11/03 06:37:25;;;;;;;8.30;4.50;;;;;;;;;;781118;178;1021897;-65
2023/11/03 06:39:53;;;;;;;8.50;4.60;;;;;;;;;;789318;178;815297;-66
2023/11/03 06:42:17;;;;;;;8.93;4.90;;;;;;;;;;779443;178;802431;-64
2023/11/03 06:44:42;;;;;;;6.60;4.20;;;;;;;;;;780748;178;917625;-67
2023/11/03 06:47:08;;;;;;;6.30;4.90;;;;;;;;;;783275;178;918982;-64
2023/11/03 06:49:34;;;;;;;7.13;4.70;;;;;;;;;;781984;178;918644;-67
2023/11/03 06:52:00;;;;;;;7.97;4.80;;;;;;;;;;783224;178;905811;-65
2023/11/03 06:54:26;;;;;;;7.37;3.90;;;;;;;;;;778414;178;918691;-65
2023/11/03 06:56:51;;;;;;;9.97;4.07;;;;;;;;;;788371;178;918799;-66
2023/11/03 06:59:17;;;;;;;8.20;4.43;;;;;;;;;;781613;179;919518;-65
2023/11/03 07:01:43;;;;;;;9.10;4.27;;;;;;;;;;780769;178;906468;-67
2023/11/03 07:04:09;;;;;;;7.03;4.17;;;;;;;;;;786433;178;854234;-67
2023/11/03 07:06:35;;;;;;;5.35;3.92;;;;;;;;;;780781;178;924082;-65
2023/11/03 07:09:02;;;;;;;8.70;6.03;;;;;;;;;;777594;178;921964;-64
2023/11/03 07:11:29;;;;;;;7.20;4.70;;;;;;;;;;786392;178;920296;-67
2023/11/03 07:13:53;;;;;;;8.73;4.63;;;;;;;;;;781032;177;919979;-66
2023/11/03 07:16:18;;;;;;;9.47;4.60;;;;;;;;;;781309;177;932122;-64
2023/11/03 07:18:44;;;;;;;6.70;5.40;;;;;;;;;;784931;178;921457;-65
2023/11/03 07:21:12;;;;;;;9.03;4.17;;;;;;;;;;778179;179;919010;-65
2023/11/03 07:23:38;;;;;;;7.10;4.27;;;;;;;;;;783672;178;817113;-65
2023/11/03 07:26:04;;;;;;;8.10;4.83;;;;;;;;;;783287;178;915839;-70
2023/11/03 07:28:29;;;;;;;4.90;3.87;;;;;;;;;;784805;177;888401;-64
2023/11/03 07:30:55;;;;;;;10.10;3.93;;;;;;;;;;783768;178;919335;-70
2023/11/03 07:33:21;;;;;;;7.35;3.58;;;;;;;;;;781335;178;927418;-70
2023/11/03 07:35:47;;;;;;;7.07;3.80;;;;;;;;;;786170;178;915768;-63
2023/11/03 07:38:13;;;;;;;10.52;7.05;;;;;;;;;;781516;178;915228;-64
2023/11/03 07:40:39;;;;;;;7.63;5.70;;;;;;;;;;783495;178;911745;-64
2023/11/03 07:43:05;;;;;;;11.83;6.77;;;;;;;;;;782205;178;917477;-69
2023/11/03 07:45:32;;;;;;;13.17;6.83;;;;;;;;;;776838;179;808609;-66
2023/11/03 07:47:56;;;;;;;6.03;4.43;;;;;;;;;;782375;178;818678;-71
2023/11/03 07:50:22;;;;;;;9.53;4.00;;;;;;;;;;783776;178;819276;-65
2023/11/03 07:52:48;;;;;;;9.50;3.50;;;;;;;;;;785911;178;817870;-70
2023/11/03 07:55:15;;;;;;;8.63;3.67;;;;;;;;;;782211;178;922599;-66
2023/11/03 07:57:40;;;;;;;6.63;3.33;;;;;;;;;;780911;178;917174;-64
2023/11/03 08:00:09;;;;;;;12.15;4.40;;;;;;;;;;785714;178;917112;-70
2023/11/03 08:02:33;;;;;;;6.93;4.17;;;;;;;;;;782634;178;918127;-71
2023/11/03 08:04:58;;;;;;;5.23;3.73;;;;;;;;;;779499;178;920615;-64
2023/11/03 08:07:24;;;;;;;6.77;4.00;;;;;;;;;;785031;178;814300;-69
2023/11/03 08:09:49;;;;;;;5.20;4.00;;;;;;;;;;784032;178;920392;-65
2023/11/03 08:12:15;;;;;;;6.40;3.87;;;;;;;;;;777912;179;917989;-66
2023/11/03 08:14:41;;;;;;;7.70;3.80;;;;;;;;;;779875;178;920965;-64
2023/11/03 08:17:07;;;;;;;8.50;4.77;;;;;;;;;;783313;179;903939;-63
2023/11/03 08:19:34;;;;;;;8.80;4.67;;;;;;;;;;782683;178;919958;-65
2023/11/03 08:21:59;;;;;;;7.93;3.60;;;;;;;;;;780129;176;815872;-64
2023/11/03 08:24:26;;;;;;;5.90;4.30;;;;;;;;;;790446;178;870843;-69
2023/11/03 08:26:51;;;;;;;6.90;4.60;;;;;;;;;;783437;178;918906;-64
2023/11/03 08:29:16;;;;;;;5.27;3.50;;;;;;;;;;786114;177;919238;-64
2023/11/03 08:31:43;;;;;;;6.83;3.87;;;;;;;;;;788348;177;618747;-65
2023/11/03 08:34:12;;;;;;;6.50;4.53;;;;;;;;;;784597;178;864759;-65
2023/11/03 08:36:34;;;;;;;11.57;5.73;;;;;;;;;;788861;177;816119;-65
2023/11/03 08:39:00;;;;;;;7.30;5.10;;;;;;;;;;787791;178;628650;-68
2023/11/03 08:41:26;;;;;;;16.80;12.13;;;;;;;;;;787880;178;623756;-65
2023/11/03 08:43:51;;;;;;;19.60;13.30;;;;;;;;;;781402;178;919317;-67
2023/11/03 08:46:17;;;;;;;11.87;8.73;;;;;;;;;;782203;178;918241;-65
2023/11/03 08:48:45;;;;;;;9.87;5.70;;;;;;;;;;785337;178;918801;-64
2023/11/03 08:51:09;;;;;;;14.03;9.20;;;;;;;;;;776792;178;918514;-68
2023/11/03 08:53:35;;;;;;;23.07;8.40;;;;;;;;;;782141;178;916541;-67
2023/11/03 08:56:01;;;;;;;10.70;8.77;;;;;;;;;;786919;178;854536;-68
2023/11/03 08:58:27;;;;;;;15.95;10.00;;;;;;;;;;779539;178;908675;-68
2023/11/03 09:00:54;;;;;;;13.73;8.50;;;;;;;;;;781608;178;917705;-67
2023/11/03 09:03:20;;;;;;;11.90;7.60;;;;;;;;;;787736;178;816568;-68
2023/11/03 09:05:44;;;;;;;15.40;6.00;;;;;;;;;;781428;178;919113;-70
2023/11/03 09:08:10;;;;;;;5.67;4.03;;;;;;;;;;779488;178;920017;-68
2023/11/03 09:10:36;;;;;;;4.40;3.33;;;;;;;;;;780207;178;917648;-65
2023/11/03 09:13:02;;;;;;;8.27;3.73;;;;;;;;;;785191;178;895401;-65
2023/11/03 09:15:29;;;;;;;5.97;3.50;;;;;;;;;;781181;178;816115;-68
2023/11/03 09:17:53;;;;;;;7.23;3.80;;;;;;;;;;781618;178;919912;-67
2023/11/03 09:20:19;;;;;;;4.43;3.10;;;;;;;;;;789589;178;919338;-67
2023/11/03 09:22:48;;;;;;;4.83;2.93;;;;;;;;;;780817;178;919022;-66
2023/11/03 09:25:12;;;;;;;4.90;3.97;;;;;;;;;;782903;178;919214;-65
2023/11/03 09:27:38;;;;;;;4.68;3.75;;;;;;;;;;785855;178;919251;-64
2023/11/03 09:30:05;;;;;;;6.63;3.97;;;;;;;;;;783978;178;918532;-67
2023/11/03 09:32:30;;;;;;;3.77;2.60;;;;;;;;;;779511;178;921603;-68
2023/11/03 09:34:55;;;;;;;3.90;3.00;;;;;;;;;;786320;176;630916;-67
2023/11/03 09:37:21;;;;;;;4.60;2.90;;;;;;;;;;784619;178;628421;-65
2023/11/03 09:39:46;;;;;;;4.60;2.80;;;;;;;;;;785540;178;627245;-65
2023/11/03 09:42:12;;;;;;;6.20;4.90;;;;;;;;;;786587;178;627291;-65
2023/11/03 09:44:38;;;;;;;7.30;5.35;;;;;;;;;;789552;177;918182;-67
2023/11/03 09:47:04;;;;;;;9.93;3.80;;;;;;;;;;782960;178;926162;-64
2023/11/03 09:49:30;;;;;;;5.20;3.77;;;;;;;;;;785330;177;918855;-64
2023/11/03 09:51:57;;;;;;;5.20;4.60;;;;;;;;;;785357;178;816623;-67
2023/11/03 09:54:23;;;;;;;4.80;3.93;;;;;;;;;;782372;177;916047;-64
2023/11/03 09:56:49;;;;;;;7.00;4.13;;;;;;;;;;778730;178;916215;-66
2023/11/03 09:59:17;;;;;;;9.63;5.90;;;;;;;;;;781296;178;915449;-66
2023/11/03 10:01:41;;;;;;;7.20;4.87;;;;;;;;;;778949;180;896146;-66
2023/11/03 10:04:09;;;;;;;5.27;4.20;;;;;;;;;;779350;179;918575;-66
2023/11/03 10:06:33;;;;;;;8.40;5.90;;;;;;;;;;781793;178;919455;-67
2023/11/03 10:08:59;;;;;;;8.77;5.40;;;;;;;;;;784278;178;919342;-64
2023/11/03 10:11:25;;;;;;;11.23;6.70;;;;;;;;;;781075;178;878511;-64
2023/11/03 10:13:51;;;;;;;11.47;8.10;;;;;;;;;;777357;178;919292;-64
2023/11/03 10:16:16;;;;;;;8.73;6.70;;;;;;;;;;785990;178;921243;-64
2023/11/03 10:18:42;;;;;;;6.60;5.80;;;;;;;;;;780836;178;922284;-67
2023/11/03 10:21:08;;;;;;;6.80;5.87;;;;;;;;;;780421;178;919285;-67
2023/11/03 10:23:35;;;;;;;67.53;34.03;;;;;;;;;;785064;178;918229;-66
2023/11/03 10:26:00;;;;;;;16.90;8.80;;;;;;;;;;781998;178;919587;-66
2023/11/03 10:28:26;;;;;;;23.67;15.83;;;;;;;;;;778407;179;918519;-66
2023/11/03 10:30:53;;;;;;;10.70;6.27;;;;;;;;;;780704;178;919937;-66
2023/11/03 10:33:19;;;;;;;9.70;5.43;;;;;;;;;;788582;178;919512;-65
2023/11/03 10:35:44;;;;;;;15.47;10.30;;;;;;;;;;782184;178;913922;-65
2023/11/03 10:38:10;;;;;;;12.83;9.87;;;;;;;;;;781954;178;918711;-65
2023/11/03 10:40:36;;;;;;;14.03;6.77;;;;;;;;;;785543;178;917518;-66
2023/11/03 10:43:02;;;;;;;8.00;4.10;;;;;;;;;;782337;178;918533;-65
2023/11/03 10:45:28;;;;;;;13.03;6.77;;;;;;;;;;779759;178;918883;-65
2023/11/03 10:48:01;;;;;;;11.83;6.40;;;;;;;;;;789303;177;919676;-65
2023/11/03 10:50:25;;;;;;;13.60;4.90;;;;;;;;;;784976;178;916573;-65
2023/11/03 10:52:51;;;;;;;16.30;8.40;;;;;;;;;;785741;178;655704;-65
2023/11/03 10:55:17;;;;;;;8.00;5.53;;;;;;;;;;782140;178;815278;-66
2023/11/03 10:57:43;;;;;;;4.83;3.50;;;;;;;;;;782999;179;918223;-65
2023/11/03 11:00:12;;;;;;;9.45;7.10;;;;;;;;;;784616;178;919310;-65
2023/11/03 11:02:37;;;;;;;7.77;5.20;;;;;;;;;;779534;178;918541;-65
2023/11/03 11:05:03;;;;;;;4.37;2.50;;;;;;;;;;786085;178;919080;-65
2023/11/03 11:07:29;;;;;;;26.50;13.70;;;;;;;;;;778641;179;919819;-66
2023/11/03 11:09:55;;;;;;;133.20;56.10;;;;;;;;;;782384;178;918606;-65
2023/11/03 11:12:21;;;;;;;184.77;55.87;;;;;;;;;;781504;178;919428;-65
2023/11/03 11:14:48;;;;;;;94.67;37.37;;;;;;;;;;786405;178;919266;-66
2023/11/03 11:17:15;;;;;;;20.83;9.37;;;;;;;;;;780281;178;938978;-65
2023/11/03 11:19:42;;;;;;;17.60;6.17;;;;;;;;;;780971;178;921642;-66
2023/11/03 11:22:08;;;;;;;8.60;3.60;;;;;;;;;;784269;178;844437;-67
2023/11/03 11:24:37;;;;;;;27.03;11.30;;;;;;;;;;782501;178;919015;-65
2023/11/03 11:27:06;;;;;;;26.95;13.90;;;;;;;;;;782096;178;916514;-65
2023/11/03 11:29:33;;;;;;;18.63;7.17;;;;;;;;;;779854;178;917299;-65
2023/11/03 11:32:00;;;;;;;26.40;11.05;;;;;;;;;;786612;178;845389;-65
2023/11/03 11:34:26;;;;;;;14.93;7.13;;;;;;;;;;781901;178;917199;-66
2023/11/03 11:36:54;;;;;;;7.22;4.68;;;;;;;;;;781430;178;918950;-66
2023/11/03 11:39:19;;;;;;;5.40;3.77;;;;;;;;;;784955;178;918799;-66
2023/11/03 11:41:47;;;;;;;6.60;4.27;;;;;;;;;;776474;177;918774;-66
2023/11/03 11:44:11;;;;;;;3.33;2.30;;;;;;;;;;774176;179;923743;-66
2023/11/03 11:46:37;;;;;;;7.22;2.92;;;;;;;;;;776807;176;919986;-68
2023/11/03 11:49:03;;;;;;;5.73;3.20;;;;;;;;;;787861;178;937641;-65
2023/11/03 11:51:29;;;;;;;4.10;2.80;;;;;;;;;;782259;178;915599;-65
2023/11/03 11:53:57;;;;;;;7.73;3.37;;;;;;;;;;779097;179;918203;-66
2023/11/03 11:56:21;;;;;;;3.70;2.40;;;;;;;;;;785303;178;914734;-66
2023/11/03 11:58:48;;;;;;;4.13;2.43;;;;;;;;;;784338;177;884536;-67
2023/11/03 12:01:13;;;;;;;5.20;2.37;;;;;;;;;;783848;177;914797;-66
2023/11/03 12:03:39;;;;;;;2.90;1.13;;;;;;;;;;788637;178;918968;-65
2023/11/03 12:06:06;;;;;;;2.30;1.17;;;;;;;;;;782491;178;918906;-66
2023/11/03 12:08:31;;;;;;;2.90;1.37;;;;;;;;;;779935;177;921965;-66
2023/11/03 12:10:57;;;;;;;4.07;1.63;;;;;;;;;;780610;178;917313;-65
2023/11/03 12:13:24;;;;;;;2.60;1.40;;;;;;;;;;774453;179;918265;-67
2023/11/03 12:15:48;;;;;;;2.30;1.10;;;;;;;;;;785572;177;899954;-67
2023/11/03 12:18:16;;;;;;;1.97;0.97;;;;;;;;;;782921;178;822610;-66
2023/11/03 12:20:40;;;;;;;3.20;1.10;;;;;;;;;;786278;179;888173;-66
2023/11/03 12:23:06;;;;;;;2.33;1.13;;;;;;;;;;779135;177;906915;-66
2023/11/03 12:25:32;;;;;;;2.00;1.00;;;;;;;;;;779793;178;919828;-65
2023/11/03 12:27:58;;;;;;;4.20;1.27;;;;;;;;;;784896;178;915785;-66
2023/11/03 12:30:23;;;;;;;2.77;1.13;;;;;;;;;;783620;178;917778;-67
2023/11/03 12:32:49;;;;;;;2.97;1.40;;;;;;;;;;783101;178;915498;-66
2023/11/03 12:35:15;;;;;;;2.70;1.37;;;;;;;;;;785554;178;762820;-66
2023/11/03 12:37:41;;;;;;;2.10;1.10;;;;;;;;;;779188;178;926214;-65
2023/11/03 12:40:08;;;;;;;2.30;1.07;;;;;;;;;;782793;178;919925;-66
2023/11/03 12:42:34;;;;;;;2.33;1.20;;;;;;;;;;780598;178;916153;-66
2023/11/03 12:45:00;;;;;;;3.60;1.30;;;;;;;;;;786713;176;916832;-66
2023/11/03 12:47:31;;;;;;;2.33;1.30;;;;;;;;;;782087;178;916239;-66
2023/11/03 12:49:57;;;;;;;2.00;1.00;;;;;;;;;;781568;177;945137;-66
2023/11/03 12:52:23;;;;;;;2.43;1.43;;;;;;;;;;784557;178;917665;-68
2023/11/03 12:54:50;;;;;;;2.13;1.10;;;;;;;;;;781081;178;914927;-67
2023/11/03 12:57:14;;;;;;;4.43;1.43;;;;;;;;;;780133;178;922437;-67
2023/11/03 12:59:40;;;;;;;2.40;1.30;;;;;;;;;;776164;179;917701;-66
2023/11/03 13:02:06;;;;;;;2.50;1.23;;;;;;;;;;782361;179;817011;-65
2023/11/03 13:04:33;;;;;;;3.23;1.73;;;;;;;;;;784702;178;915717;-67
2023/11/03 13:06:58;;;;;;;2.75;1.20;;;;;;;;;;778505;179;891389;-65
2023/11/03 13:09:24;;;;;;;3.47;1.70;;;;;;;;;;787275;178;915373;-65
2023/11/03 13:11:50;;;;;;;2.83;1.63;;;;;;;;;;784302;177;915316;-65
2023/11/03 13:14:16;;;;;;;2.77;2.03;;;;;;;;;;785312;177;887844;-66
2023/11/03 13:16:41;;;;;;;2.63;1.53;;;;;;;;;;789698;178;807229;-65
2023/11/03 13:19:09;;;;;;;4.75;2.80;;;;;;;;;;784682;177;917743;-66
2023/11/03 13:21:34;;;;;;;4.77;3.40;;;;;;;;;;782056;177;917791;-65
2023/11/03 13:23:59;;;;;;;16.33;4.60;;;;;;;;;;784122;178;919848;-66
2023/11/03 13:26:25;;;;;;;9.47;6.00;;;;;;;;;;773638;180;919367;-67
2023/11/03 13:28:51;;;;;;;11.33;4.43;;;;;;;;;;781583;178;922458;-66
2023/11/03 13:31:16;;;;;;;8.57;4.10;;;;;;;;;;781354;178;919799;-66
2023/11/03 13:33:44;;;;;;;4.73;3.37;;;;;;;;;;790517;178;918046;-67
2023/11/03 13:36:12;;;;;;;5.30;3.60;;;;;;;;;;782595;178;917411;-65
2023/11/03 13:38:36;;;;;;;4.27;2.70;;;;;;;;;;780557;178;917277;-65
2023/11/03 13:41:01;;;;;;;9.70;4.97;;;;;;;;;;788091;178;919614;-67
2023/11/03 13:43:27;;;;;;;5.37;3.05;;;;;;;;;;781902;178;922156;-66
2023/11/03 13:45:52;;;;;;;4.17;2.00;;;;;;;;;;781122;178;920089;-66
2023/11/03 13:48:17;;;;;;;2.80;1.70;;;;;;;;;;784755;178;916821;-66
2023/11/03 13:50:44;;;;;;;3.27;2.20;;;;;;;;;;780672;178;917421;-67
2023/11/03 13:53:09;;;;;;;5.18;3.05;;;;;;;;;;776595;179;918360;-67
2023/11/03 13:55:36;;;;;;;5.60;2.83;;;;;;;;;;779440;178;918356;-66
2023/11/03 13:58:01;;;;;;;4.45;2.75;;;;;;;;;;781508;178;799797;-66
2023/11/03 14:00:27;;;;;;;4.47;2.87;;;;;;;;;;780753;175;917215;-66
2023/11/03 14:02:53;;;;;;;4.70;2.93;;;;;;;;;;782129;178;827873;-66
2023/11/03 14:05:18;;;;;;;6.87;4.40;;;;;;;;;;784170;178;914656;-66
2023/11/03 14:07:44;;;;;;;4.97;2.90;;;;;;;;;;781676;178;920988;-66
2023/11/03 14:10:13;;;;;;;4.53;2.77;;;;;;;;;;781299;178;918158;-66
2023/11/03 14:12:38;;;;;;;4.20;2.20;;;;;;;;;;784873;178;918776;-67
2023/11/03 14:15:05;;;;;;;5.00;2.33;;;;;;;;;;784814;178;920060;-67
2023/11/03 14:17:29;;;;;;;2.40;1.20;;;;;;;;;;781630;178;920143;-67
2023/11/03 14:19:55;;;;;;;2.15;1.10;;;;;;;;;;783118;178;920815;-65